sensor_id;sensor_type;location;lat;lon;timestamp;P1;durP1;ratioP1;P2;durP2;ratioP2
34405;SDS011;20658;45.630;8.886;2024-01-11T00:00:21;34.63;;;17.15;;
34405;SDS011;20658;45.630;8.886;2024-01-11T00:02:56;28.00;;;15.73;;
34405;SDS011;20658;45.630;8.886;2024-01-11T00:05:29;30.10;;;15.88;;
34405;SDS011;20658;45.630;8.886;2024-01-11T00:08:03;30.88;;;16.15;;
34405;SDS011;20658;45.630;8.886;2024-01-11T00:10:37;30.73;;;15.90;;
34405;SDS011;20658;45.630;8.886;2024-01-11T00:13:10;30.42;;;16.75;;
34405;SDS011;20658;45.630;8.886;2024-01-11T00:15:44;30.17;;;18.05;;
34405;SDS011;20658;45.630;8.886;2024-01-11T00:18:18;30.70;;;17.67;;
34405;SDS011;20658;45.630;8.886;2024-01-11T00:20:52;31.50;;;18.83;;
34405;SDS011;20658;45.630;8.886;2024-01-11T00:23:25;33.85;;;17.50;;
34405;SDS011;20658;45.630;8.886;2024-01-11T00:25:59;31.42;;;17.90;;
34405;SDS011;20658;45.630;8.886;2024-01-11T00:28:32;33.28;;;18.58;;
34405;SDS011;20658;45.630;8.886;2024-01-11T00:31:05;34.80;;;18.58;;
34405;SDS011;20658;45.630;8.886;2024-01-11T00:33:40;30.23;;;17.73;;
34405;SDS011;20658;45.630;8.886;2024-01-11T00:36:17;31.60;;;17.98;;
34405;SDS011;20658;45.630;8.886;2024-01-11T00:38:51;31.73;;;17.80;;
34405;SDS011;20658;45.630;8.886;2024-01-11T00:41:25;34.42;;;17.77;;
34405;SDS011;20658;45.630;8.886;2024-01-11T00:43:58;31.63;;;18.13;;
34405;SDS011;20658;45.630;8.886;2024-01-11T00:46:31;35.90;;;19.42;;
34405;SDS011;20658;45.630;8.886;2024-01-11T00:49:06;32.65;;;16.90;;
34405;SDS011;20658;45.630;8.886;2024-01-11T00:51:40;34.00;;;17.67;;
34405;SDS011;20658;45.630;8.886;2024-01-11T00:54:14;29.85;;;16.60;;
34405;SDS011;20658;45.630;8.886;2024-01-11T00:56:47;33.50;;;18.67;;
34405;SDS011;20658;45.630;8.886;2024-01-11T00:59:20;34.45;;;17.67;;
34405;SDS011;20658;45.630;8.886;2024-01-11T01:01:54;33.53;;;16.77;;
34405;SDS011;20658;45.630;8.886;2024-01-11T01:04:29;34.08;;;18.98;;
34405;SDS011;20658;45.630;8.886;2024-01-11T01:07:03;33.90;;;18.35;;
34405;SDS011;20658;45.630;8.886;2024-01-11T01:09:37;36.20;;;18.38;;
34405;SDS011;20658;45.630;8.886;2024-01-11T01:12:10;30.45;;;16.92;;
34405;SDS011;20658;45.630;8.886;2024-01-11T01:14:43;34.10;;;19.38;;
34405;SDS011;20658;45.630;8.886;2024-01-11T01:17:17;36.58;;;17.73;;
34405;SDS011;20658;45.630;8.886;2024-01-11T01:19:46;31.05;;;16.90;;
34405;SDS011;20658;45.630;8.886;2024-01-11T01:22:20;32.42;;;18.45;;
34405;SDS011;20658;45.630;8.886;2024-01-11T01:24:53;29.90;;;18.70;;
34405;SDS011;20658;45.630;8.886;2024-01-11T01:27:27;32.00;;;17.90;;
34405;SDS011;20658;45.630;8.886;2024-01-11T01:30:00;31.15;;;16.88;;
34405;SDS011;20658;45.630;8.886;2024-01-11T01:32:34;33.45;;;19.55;;
34405;SDS011;20658;45.630;8.886;2024-01-11T01:35:09;36.47;;;21.17;;
34405;SDS011;20658;45.630;8.886;2024-01-11T01:37:42;37.38;;;21.52;;
34405;SDS011;20658;45.630;8.886;2024-01-11T01:40:15;38.05;;;21.10;;
34405;SDS011;20658;45.630;8.886;2024-01-11T01:42:44;37.97;;;21.27;;
34405;SDS011;20658;45.630;8.886;2024-01-11T01:45:18;42.83;;;23.25;;
34405;SDS011;20658;45.630;8.886;2024-01-11T01:47:51;41.90;;;22.98;;
34405;SDS011;20658;45.630;8.886;2024-01-11T01:50:27;42.28;;;21.58;;
34405;SDS011;20658;45.630;8.886;2024-01-11T01:53:01;48.67;;;24.20;;
34405;SDS011;20658;45.630;8.886;2024-01-11T01:55:35;42.05;;;23.35;;
34405;SDS011;20658;45.630;8.886;2024-01-11T01:58:09;41.78;;;24.13;;
34405;SDS011;20658;45.630;8.886;2024-01-11T02:00:42;49.08;;;25.10;;
34405;SDS011;20658;45.630;8.886;2024-01-11T02:03:17;52.22;;;25.65;;
34405;SDS011;20658;45.630;8.886;2024-01-11T02:05:52;54.60;;;27.40;;
34405;SDS011;20658;45.630;8.886;2024-01-11T02:08:26;51.55;;;25.90;;
34405;SDS011;20658;45.630;8.886;2024-01-11T02:11:01;45.00;;;25.23;;
34405;SDS011;20658;45.630;8.886;2024-01-11T02:13:34;44.95;;;25.35;;
34405;SDS011;20658;45.630;8.886;2024-01-11T02:16:08;42.28;;;23.35;;
34405;SDS011;20658;45.630;8.886;2024-01-11T02:18:41;42.10;;;23.10;;
34405;SDS011;20658;45.630;8.886;2024-01-11T02:21:16;40.33;;;22.48;;
34405;SDS011;20658;45.630;8.886;2024-01-11T02:23:58;37.72;;;22.05;;
34405;SDS011;20658;45.630;8.886;2024-01-11T02:26:35;42.85;;;22.75;;
34405;SDS011;20658;45.630;8.886;2024-01-11T02:29:09;39.65;;;22.42;;
34405;SDS011;20658;45.630;8.886;2024-01-11T02:31:42;41.05;;;22.85;;
34405;SDS011;20658;45.630;8.886;2024-01-11T02:34:16;38.35;;;21.85;;
34405;SDS011;20658;45.630;8.886;2024-01-11T02:36:49;38.38;;;22.27;;
34405;SDS011;20658;45.630;8.886;2024-01-11T02:39:24;42.83;;;23.17;;
34405;SDS011;20658;45.630;8.886;2024-01-11T02:41:59;37.22;;;20.45;;
34405;SDS011;20658;45.630;8.886;2024-01-11T02:44:28;40.90;;;23.17;;
34405;SDS011;20658;45.630;8.886;2024-01-11T02:47:02;35.85;;;21.02;;
34405;SDS011;20658;45.630;8.886;2024-01-11T02:49:35;40.80;;;22.75;;
34405;SDS011;20658;45.630;8.886;2024-01-11T02:52:04;42.13;;;21.58;;
34405;SDS011;20658;45.630;8.886;2024-01-11T02:54:39;39.38;;;21.75;;
34405;SDS011;20658;45.630;8.886;2024-01-11T02:57:13;40.13;;;21.88;;
34405;SDS011;20658;45.630;8.886;2024-01-11T02:59:46;41.78;;;23.30;;
34405;SDS011;20658;45.630;8.886;2024-01-11T03:02:19;43.17;;;24.48;;
34405;SDS011;20658;45.630;8.886;2024-01-11T03:04:53;45.13;;;22.80;;
34405;SDS011;20658;45.630;8.886;2024-01-11T03:07:26;41.05;;;23.33;;
34405;SDS011;20658;45.630;8.886;2024-01-11T03:10:02;41.58;;;22.70;;
34405;SDS011;20658;45.630;8.886;2024-01-11T03:12:36;41.72;;;23.83;;
34405;SDS011;20658;45.630;8.886;2024-01-11T03:15:09;41.00;;;21.77;;
34405;SDS011;20658;45.630;8.886;2024-01-11T03:17:43;36.90;;;22.10;;
34405;SDS011;20658;45.630;8.886;2024-01-11T03:20:16;41.95;;;21.75;;
34405;SDS011;20658;45.630;8.886;2024-01-11T03:22:53;36.58;;;21.33;;
34405;SDS011;20658;45.630;8.886;2024-01-11T03:25:27;38.58;;;22.77;;
34405;SDS011;20658;45.630;8.886;2024-01-11T03:28:02;41.17;;;22.23;;
34405;SDS011;20658;45.630;8.886;2024-01-11T03:30:36;39.50;;;21.75;;
34405;SDS011;20658;45.630;8.886;2024-01-11T03:33:09;39.92;;;20.60;;
34405;SDS011;20658;45.630;8.886;2024-01-11T03:35:43;35.80;;;20.08;;
34405;SDS011;20658;45.630;8.886;2024-01-11T03:38:16;37.13;;;20.58;;
34405;SDS011;20658;45.630;8.886;2024-01-11T03:40:51;32.15;;;19.35;;
34405;SDS011;20658;45.630;8.886;2024-01-11T03:43:25;38.97;;;21.23;;
34405;SDS011;20658;45.630;8.886;2024-01-11T03:45:58;37.92;;;20.83;;
34405;SDS011;20658;45.630;8.886;2024-01-11T03:48:32;34.17;;;18.88;;
34405;SDS011;20658;45.630;8.886;2024-01-11T03:51:07;35.63;;;20.45;;
34405;SDS011;20658;45.630;8.886;2024-01-11T03:53:41;36.17;;;20.00;;
34405;SDS011;20658;45.630;8.886;2024-01-11T03:56:15;36.80;;;20.88;;
34405;SDS011;20658;45.630;8.886;2024-01-11T03:58:49;39.45;;;21.17;;
34405;SDS011;20658;45.630;8.886;2024-01-11T04:01:22;37.85;;;21.52;;
34405;SDS011;20658;45.630;8.886;2024-01-11T04:03:55;38.35;;;20.17;;
34405;SDS011;20658;45.630;8.886;2024-01-11T04:06:29;35.15;;;19.88;;
34405;SDS011;20658;45.630;8.886;2024-01-11T04:09:02;35.33;;;19.75;;
34405;SDS011;20658;45.630;8.886;2024-01-11T04:11:37;37.58;;;20.85;;
34405;SDS011;20658;45.630;8.886;2024-01-11T04:14:06;38.38;;;20.20;;
34405;SDS011;20658;45.630;8.886;2024-01-11T04:16:39;39.88;;;20.60;;
34405;SDS011;20658;45.630;8.886;2024-01-11T04:19:13;38.70;;;21.27;;
34405;SDS011;20658;45.630;8.886;2024-01-11T04:21:46;37.00;;;19.92;;
34405;SDS011;20658;45.630;8.886;2024-01-11T04:24:20;37.33;;;20.95;;
34405;SDS011;20658;45.630;8.886;2024-01-11T04:26:55;38.80;;;20.85;;
34405;SDS011;20658;45.630;8.886;2024-01-11T04:29:23;43.50;;;23.27;;
34405;SDS011;20658;45.630;8.886;2024-01-11T04:31:56;42.20;;;23.15;;
34405;SDS011;20658;45.630;8.886;2024-01-11T04:34:30;42.88;;;24.13;;
34405;SDS011;20658;45.630;8.886;2024-01-11T04:37:03;38.60;;;21.02;;
34405;SDS011;20658;45.630;8.886;2024-01-11T04:39:37;41.53;;;22.30;;
34405;SDS011;20658;45.630;8.886;2024-01-11T04:42:11;41.22;;;22.77;;
34405;SDS011;20658;45.630;8.886;2024-01-11T04:44:45;43.80;;;23.83;;
34405;SDS011;20658;45.630;8.886;2024-01-11T04:47:18;40.75;;;23.15;;
34405;SDS011;20658;45.630;8.886;2024-01-11T04:49:51;39.15;;;22.42;;
34405;SDS011;20658;45.630;8.886;2024-01-11T04:52:25;42.17;;;24.83;;
34405;SDS011;20658;45.630;8.886;2024-01-11T04:54:58;46.22;;;24.05;;
34405;SDS011;20658;45.630;8.886;2024-01-11T04:57:33;46.78;;;24.95;;
34405;SDS011;20658;45.630;8.886;2024-01-11T05:00:07;45.35;;;23.95;;
34405;SDS011;20658;45.630;8.886;2024-01-11T05:02:41;37.60;;;21.25;;
34405;SDS011;20658;45.630;8.886;2024-01-11T05:05:15;42.38;;;23.80;;
34405;SDS011;20658;45.630;8.886;2024-01-11T05:07:48;41.00;;;22.52;;
34405;SDS011;20658;45.630;8.886;2024-01-11T05:10:21;42.00;;;23.95;;
34405;SDS011;20658;45.630;8.886;2024-01-11T05:12:56;42.78;;;22.67;;
34405;SDS011;20658;45.630;8.886;2024-01-11T05:15:30;40.88;;;22.75;;
34405;SDS011;20658;45.630;8.886;2024-01-11T05:18:03;36.85;;;21.92;;
34405;SDS011;20658;45.630;8.886;2024-01-11T05:20:37;38.50;;;21.60;;
34405;SDS011;20658;45.630;8.886;2024-01-11T05:23:10;41.80;;;23.23;;
34405;SDS011;20658;45.630;8.886;2024-01-11T05:25:44;43.40;;;22.63;;
34405;SDS011;20658;45.630;8.886;2024-01-11T05:28:18;49.20;;;23.95;;
34405;SDS011;20658;45.630;8.886;2024-01-11T05:30:52;39.78;;;23.05;;
34405;SDS011;20658;45.630;8.886;2024-01-11T05:33:26;40.50;;;21.55;;
34405;SDS011;20658;45.630;8.886;2024-01-11T05:35:59;41.13;;;21.35;;
34405;SDS011;20658;45.630;8.886;2024-01-11T05:38:34;40.67;;;20.85;;
34405;SDS011;20658;45.630;8.886;2024-01-11T05:41:07;41.40;;;23.58;;
34405;SDS011;20658;45.630;8.886;2024-01-11T05:43:42;42.85;;;24.13;;
34405;SDS011;20658;45.630;8.886;2024-01-11T05:46:15;38.47;;;21.70;;
34405;SDS011;20658;45.630;8.886;2024-01-11T05:48:49;41.28;;;23.45;;
34405;SDS011;20658;45.630;8.886;2024-01-11T05:51:22;45.92;;;24.52;;
34405;SDS011;20658;45.630;8.886;2024-01-11T05:53:56;41.75;;;23.42;;
34405;SDS011;20658;45.630;8.886;2024-01-11T05:56:29;41.60;;;23.48;;
34405;SDS011;20658;45.630;8.886;2024-01-11T05:59:04;45.53;;;25.17;;
34405;SDS011;20658;45.630;8.886;2024-01-11T06:01:40;44.45;;;24.25;;
34405;SDS011;20658;45.630;8.886;2024-01-11T06:04:14;40.85;;;23.65;;
34405;SDS011;20658;45.630;8.886;2024-01-11T06:06:47;39.75;;;22.80;;
34405;SDS011;20658;45.630;8.886;2024-01-11T06:09:16;44.05;;;23.77;;
34405;SDS011;20658;45.630;8.886;2024-01-11T06:11:49;42.50;;;25.92;;
34405;SDS011;20658;45.630;8.886;2024-01-11T06:14:24;41.22;;;22.75;;
34405;SDS011;20658;45.630;8.886;2024-01-11T06:16:57;41.65;;;23.48;;
34405;SDS011;20658;45.630;8.886;2024-01-11T06:19:31;39.25;;;22.25;;
34405;SDS011;20658;45.630;8.886;2024-01-11T06:22:04;42.88;;;22.45;;
34405;SDS011;20658;45.630;8.886;2024-01-11T06:24:38;43.35;;;24.85;;
34405;SDS011;20658;45.630;8.886;2024-01-11T06:27:11;42.40;;;23.05;;
34405;SDS011;20658;45.630;8.886;2024-01-11T06:29:46;41.60;;;24.40;;
34405;SDS011;20658;45.630;8.886;2024-01-11T06:32:19;43.25;;;23.95;;
34405;SDS011;20658;45.630;8.886;2024-01-11T06:34:52;45.00;;;24.80;;
34405;SDS011;20658;45.630;8.886;2024-01-11T06:37:26;72.95;;;46.13;;
34405;SDS011;20658;45.630;8.886;2024-01-11T06:39:59;104.10;;;57.58;;
34405;SDS011;20658;45.630;8.886;2024-01-11T06:42:34;67.40;;;40.25;;
34405;SDS011;20658;45.630;8.886;2024-01-11T06:45:10;59.65;;;33.13;;
34405;SDS011;20658;45.630;8.886;2024-01-11T06:47:43;61.22;;;37.60;;
34405;SDS011;20658;45.630;8.886;2024-01-11T06:50:17;53.38;;;31.15;;
34405;SDS011;20658;45.630;8.886;2024-01-11T06:52:50;55.72;;;36.67;;
34405;SDS011;20658;45.630;8.886;2024-01-11T06:55:23;50.65;;;30.17;;
34405;SDS011;20658;45.630;8.886;2024-01-11T06:57:57;58.33;;;35.80;;
34405;SDS011;20658;45.630;8.886;2024-01-11T07:00:32;47.92;;;28.60;;
34405;SDS011;20658;45.630;8.886;2024-01-11T07:03:05;44.38;;;26.70;;
34405;SDS011;20658;45.630;8.886;2024-01-11T07:05:38;51.15;;;26.33;;
34405;SDS011;20658;45.630;8.886;2024-01-11T07:08:07;48.17;;;27.58;;
34405;SDS011;20658;45.630;8.886;2024-01-11T07:10:40;44.58;;;25.25;;
34405;SDS011;20658;45.630;8.886;2024-01-11T07:13:14;57.42;;;38.25;;
34405;SDS011;20658;45.630;8.886;2024-01-11T07:15:49;67.30;;;45.42;;
34405;SDS011;20658;45.630;8.886;2024-01-11T07:18:23;55.38;;;36.65;;
34405;SDS011;20658;45.630;8.886;2024-01-11T07:20:57;60.90;;;36.65;;
34405;SDS011;20658;45.630;8.886;2024-01-11T07:23:32;53.03;;;29.77;;
34405;SDS011;20658;45.630;8.886;2024-01-11T07:26:05;62.42;;;33.55;;
34405;SDS011;20658;45.630;8.886;2024-01-11T07:28:39;51.08;;;30.38;;
34405;SDS011;20658;45.630;8.886;2024-01-11T07:31:13;55.13;;;27.17;;
34405;SDS011;20658;45.630;8.886;2024-01-11T07:33:42;44.88;;;26.70;;
34405;SDS011;20658;45.630;8.886;2024-01-11T07:36:16;45.60;;;26.65;;
34405;SDS011;20658;45.630;8.886;2024-01-11T07:38:49;54.73;;;27.93;;
34405;SDS011;20658;45.630;8.886;2024-01-11T07:41:23;50.40;;;28.52;;
34405;SDS011;20658;45.630;8.886;2024-01-11T07:43:56;57.50;;;31.25;;
34405;SDS011;20658;45.630;8.886;2024-01-11T07:46:32;71.38;;;41.17;;
34405;SDS011;20658;45.630;8.886;2024-01-11T07:49:06;60.03;;;35.40;;
34405;SDS011;20658;45.630;8.886;2024-01-11T07:51:39;61.58;;;34.17;;
34405;SDS011;20658;45.630;8.886;2024-01-11T07:54:12;48.88;;;29.48;;
34405;SDS011;20658;45.630;8.886;2024-01-11T07:56:46;49.47;;;29.85;;
34405;SDS011;20658;45.630;8.886;2024-01-11T07:59:19;54.75;;;29.75;;
34405;SDS011;20658;45.630;8.886;2024-01-11T08:01:54;53.60;;;29.67;;
34405;SDS011;20658;45.630;8.886;2024-01-11T08:04:27;51.53;;;29.13;;
34405;SDS011;20658;45.630;8.886;2024-01-11T08:07:00;50.60;;;27.95;;
34405;SDS011;20658;45.630;8.886;2024-01-11T08:09:34;54.17;;;28.13;;
34405;SDS011;20658;45.630;8.886;2024-01-11T08:12:07;49.33;;;30.00;;
34405;SDS011;20658;45.630;8.886;2024-01-11T08:14:41;48.00;;;28.27;;
34405;SDS011;20658;45.630;8.886;2024-01-11T08:17:16;51.85;;;30.02;;
34405;SDS011;20658;45.630;8.886;2024-01-11T08:19:49;154.52;;;86.80;;
34405;SDS011;20658;45.630;8.886;2024-01-11T08:22:23;76.63;;;50.88;;
34405;SDS011;20658;45.630;8.886;2024-01-11T08:24:56;69.25;;;41.88;;
34405;SDS011;20658;45.630;8.886;2024-01-11T08:27:29;59.85;;;35.40;;
34405;SDS011;20658;45.630;8.886;2024-01-11T08:30:04;55.08;;;35.38;;
34405;SDS011;20658;45.630;8.886;2024-01-11T08:32:40;59.50;;;36.15;;
34405;SDS011;20658;45.630;8.886;2024-01-11T08:35:14;49.80;;;29.52;;
34405;SDS011;20658;45.630;8.886;2024-01-11T08:37:47;55.90;;;32.00;;
34405;SDS011;20658;45.630;8.886;2024-01-11T08:40:21;48.65;;;28.55;;
34405;SDS011;20658;45.630;8.886;2024-01-11T08:42:54;50.95;;;28.02;;
34405;SDS011;20658;45.630;8.886;2024-01-11T08:45:28;48.72;;;26.65;;
34405;SDS011;20658;45.630;8.886;2024-01-11T08:48:04;58.00;;;32.47;;
34405;SDS011;20658;45.630;8.886;2024-01-11T08:50:38;57.70;;;29.20;;
34405;SDS011;20658;45.630;8.886;2024-01-11T08:53:12;57.53;;;31.27;;
34405;SDS011;20658;45.630;8.886;2024-01-11T08:55:42;54.33;;;28.95;;
34405;SDS011;20658;45.630;8.886;2024-01-11T08:58:16;54.15;;;37.38;;
34405;SDS011;20658;45.630;8.886;2024-01-11T09:00:50;48.95;;;26.83;;
34405;SDS011;20658;45.630;8.886;2024-01-11T09:03:24;47.78;;;26.38;;
34405;SDS011;20658;45.630;8.886;2024-01-11T09:05:58;50.67;;;25.42;;
34405;SDS011;20658;45.630;8.886;2024-01-11T09:08:32;49.33;;;26.67;;
34405;SDS011;20658;45.630;8.886;2024-01-11T09:11:00;46.88;;;26.08;;
34405;SDS011;20658;45.630;8.886;2024-01-11T09:13:34;49.55;;;27.10;;
34405;SDS011;20658;45.630;8.886;2024-01-11T09:16:08;49.72;;;25.85;;
34405;SDS011;20658;45.630;8.886;2024-01-11T09:18:43;52.53;;;24.25;;
34405;SDS011;20658;45.630;8.886;2024-01-11T09:21:17;46.55;;;26.63;;
34405;SDS011;20658;45.630;8.886;2024-01-11T09:23:50;44.90;;;26.63;;
34405;SDS011;20658;45.630;8.886;2024-01-11T09:26:24;49.10;;;26.65;;
34405;SDS011;20658;45.630;8.886;2024-01-11T09:28:57;47.65;;;26.10;;
34405;SDS011;20658;45.630;8.886;2024-01-11T09:31:31;49.58;;;26.48;;
34405;SDS011;20658;45.630;8.886;2024-01-11T09:34:06;50.13;;;25.45;;
34405;SDS011;20658;45.630;8.886;2024-01-11T09:36:40;45.50;;;26.33;;
34405;SDS011;20658;45.630;8.886;2024-01-11T09:39:13;45.88;;;26.13;;
34405;SDS011;20658;45.630;8.886;2024-01-11T09:41:47;46.58;;;27.23;;
34405;SDS011;20658;45.630;8.886;2024-01-11T09:44:28;50.50;;;26.58;;
34405;SDS011;20658;45.630;8.886;2024-01-11T09:47:02;51.60;;;27.45;;
34405;SDS011;20658;45.630;8.886;2024-01-11T09:49:40;47.00;;;26.73;;
34405;SDS011;20658;45.630;8.886;2024-01-11T09:52:15;50.03;;;27.73;;
34405;SDS011;20658;45.630;8.886;2024-01-11T09:54:52;44.58;;;25.85;;
34405;SDS011;20658;45.630;8.886;2024-01-11T09:57:28;47.60;;;26.83;;
34405;SDS011;20658;45.630;8.886;2024-01-11T10:00:04;50.75;;;28.70;;
34405;SDS011;20658;45.630;8.886;2024-01-11T10:02:40;56.50;;;34.33;;
34405;SDS011;20658;45.630;8.886;2024-01-11T10:05:15;53.22;;;29.17;;
34405;SDS011;20658;45.630;8.886;2024-01-11T10:07:50;48.95;;;28.40;;
34405;SDS011;20658;45.630;8.886;2024-01-11T10:10:23;46.20;;;27.40;;
34405;SDS011;20658;45.630;8.886;2024-01-11T10:12:57;47.80;;;27.88;;
34405;SDS011;20658;45.630;8.886;2024-01-11T10:15:30;46.13;;;28.77;;
34405;SDS011;20658;45.630;8.886;2024-01-11T10:18:04;43.25;;;28.20;;
34405;SDS011;20658;45.630;8.886;2024-01-11T10:20:39;46.92;;;27.33;;
34405;SDS011;20658;45.630;8.886;2024-01-11T10:23:12;40.97;;;25.80;;
34405;SDS011;20658;45.630;8.886;2024-01-11T10:25:46;44.00;;;27.98;;
34405;SDS011;20658;45.630;8.886;2024-01-11T10:28:19;45.28;;;27.45;;
34405;SDS011;20658;45.630;8.886;2024-01-11T10:30:53;45.42;;;28.02;;
34405;SDS011;20658;45.630;8.886;2024-01-11T10:33:26;43.90;;;28.00;;
34405;SDS011;20658;45.630;8.886;2024-01-11T10:36:01;44.03;;;25.67;;
34405;SDS011;20658;45.630;8.886;2024-01-11T10:38:36;42.03;;;26.30;;
34405;SDS011;20658;45.630;8.886;2024-01-11T10:41:11;40.67;;;25.73;;
34405;SDS011;20658;45.630;8.886;2024-01-11T10:43:49;40.63;;;24.20;;
34405;SDS011;20658;45.630;8.886;2024-01-11T10:46:24;37.72;;;23.67;;
34405;SDS011;20658;45.630;8.886;2024-01-11T10:48:58;36.00;;;22.90;;
34405;SDS011;20658;45.630;8.886;2024-01-11T10:51:36;36.75;;;22.95;;
34405;SDS011;20658;45.630;8.886;2024-01-11T10:54:11;41.75;;;26.10;;
34405;SDS011;20658;45.630;8.886;2024-01-11T10:56:41;44.70;;;24.55;;
34405;SDS011;20658;45.630;8.886;2024-01-11T10:59:11;42.75;;;26.45;;
34405;SDS011;20658;45.630;8.886;2024-01-11T11:01:46;39.72;;;24.20;;
34405;SDS011;20658;45.630;8.886;2024-01-11T11:04:20;42.60;;;24.70;;
34405;SDS011;20658;45.630;8.886;2024-01-11T11:06:56;38.30;;;24.98;;
34405;SDS011;20658;45.630;8.886;2024-01-11T11:09:30;38.05;;;23.25;;
34405;SDS011;20658;45.630;8.886;2024-01-11T11:12:06;41.58;;;24.67;;
34405;SDS011;20658;45.630;8.886;2024-01-11T11:14:41;34.75;;;21.00;;
34405;SDS011;20658;45.630;8.886;2024-01-11T11:17:16;39.55;;;24.73;;
34405;SDS011;20658;45.630;8.886;2024-01-11T11:19:49;36.97;;;22.45;;
34405;SDS011;20658;45.630;8.886;2024-01-11T11:22:27;36.63;;;23.58;;
34405;SDS011;20658;45.630;8.886;2024-01-11T11:25:08;36.35;;;23.17;;
34405;SDS011;20658;45.630;8.886;2024-01-11T11:27:42;36.85;;;22.10;;
34405;SDS011;20658;45.630;8.886;2024-01-11T11:30:15;39.72;;;23.50;;
34405;SDS011;20658;45.630;8.886;2024-01-11T11:32:52;30.98;;;18.88;;
34405;SDS011;20658;45.630;8.886;2024-01-11T11:35:23;34.65;;;21.48;;
34405;SDS011;20658;45.630;8.886;2024-01-11T11:37:58;31.95;;;19.70;;
34405;SDS011;20658;45.630;8.886;2024-01-11T11:40:32;31.85;;;20.08;;
34405;SDS011;20658;45.630;8.886;2024-01-11T11:43:08;31.27;;;19.02;;
34405;SDS011;20658;45.630;8.886;2024-01-11T11:45:42;28.58;;;17.35;;
34405;SDS011;20658;45.630;8.886;2024-01-11T11:51:22;28.88;;;18.55;;
34405;SDS011;20658;45.630;8.886;2024-01-11T11:53:57;27.88;;;16.27;;
34405;SDS011;20658;45.630;8.886;2024-01-11T11:56:31;27.17;;;15.90;;
34405;SDS011;20658;45.630;8.886;2024-01-11T11:59:06;30.35;;;17.77;;
34405;SDS011;20658;45.630;8.886;2024-01-11T12:01:40;26.35;;;16.33;;
34405;SDS011;20658;45.630;8.886;2024-01-11T12:04:14;28.80;;;15.52;;
34405;SDS011;20658;45.630;8.886;2024-01-11T12:06:49;27.58;;;15.48;;
34405;SDS011;20658;45.630;8.886;2024-01-11T12:09:24;25.23;;;14.50;;
34405;SDS011;20658;45.630;8.886;2024-01-11T12:11:57;26.75;;;14.25;;
34405;SDS011;20658;45.630;8.886;2024-01-11T12:14:32;25.25;;;13.18;;
34405;SDS011;20658;45.630;8.886;2024-01-11T12:17:06;22.60;;;12.60;;
34405;SDS011;20658;45.630;8.886;2024-01-11T12:19:39;28.52;;;16.85;;
34405;SDS011;20658;45.630;8.886;2024-01-11T12:22:13;24.80;;;13.45;;
34405;SDS011;20658;45.630;8.886;2024-01-11T12:24:48;22.83;;;13.73;;
34405;SDS011;20658;45.630;8.886;2024-01-11T12:27:21;26.17;;;15.63;;
34405;SDS011;20658;45.630;8.886;2024-01-11T12:29:55;27.75;;;15.32;;
34405;SDS011;20658;45.630;8.886;2024-01-11T12:32:28;27.73;;;14.15;;
34405;SDS011;20658;45.630;8.886;2024-01-11T12:35:02;23.33;;;14.48;;
34405;SDS011;20658;45.630;8.886;2024-01-11T12:37:36;23.00;;;13.68;;
34405;SDS011;20658;45.630;8.886;2024-01-11T12:40:13;24.30;;;13.88;;
34405;SDS011;20658;45.630;8.886;2024-01-11T12:42:48;24.60;;;14.63;;
34405;SDS011;20658;45.630;8.886;2024-01-11T12:45:22;25.35;;;13.90;;
34405;SDS011;20658;45.630;8.886;2024-01-11T12:47:58;30.90;;;18.27;;
34405;SDS011;20658;45.630;8.886;2024-01-11T12:50:31;25.33;;;14.63;;
34405;SDS011;20658;45.630;8.886;2024-01-11T12:53:08;24.67;;;14.45;;
34405;SDS011;20658;45.630;8.886;2024-01-11T12:56:01;25.17;;;15.13;;
34405;SDS011;20658;45.630;8.886;2024-01-11T12:58:39;23.67;;;13.75;;
34405;SDS011;20658;45.630;8.886;2024-01-11T13:01:13;22.73;;;13.50;;
34405;SDS011;20658;45.630;8.886;2024-01-11T13:03:46;25.33;;;14.15;;
34405;SDS011;20658;45.630;8.886;2024-01-11T13:06:21;23.65;;;12.65;;
34405;SDS011;20658;45.630;8.886;2024-01-11T13:08:54;21.17;;;12.82;;
34405;SDS011;20658;45.630;8.886;2024-01-11T13:11:29;22.67;;;13.48;;
34405;SDS011;20658;45.630;8.886;2024-01-11T13:14:03;24.40;;;13.18;;
34405;SDS011;20658;45.630;8.886;2024-01-11T13:16:39;23.58;;;14.18;;
34405;SDS011;20658;45.630;8.886;2024-01-11T13:19:13;24.52;;;14.02;;
34405;SDS011;20658;45.630;8.886;2024-01-11T13:21:46;26.27;;;13.45;;
34405;SDS011;20658;45.630;8.886;2024-01-11T13:24:20;24.85;;;13.82;;
34405;SDS011;20658;45.630;8.886;2024-01-11T13:26:54;24.60;;;14.80;;
34405;SDS011;20658;45.630;8.886;2024-01-11T13:29:28;24.95;;;13.93;;
34405;SDS011;20658;45.630;8.886;2024-01-11T13:32:01;22.80;;;13.38;;
34405;SDS011;20658;45.630;8.886;2024-01-11T13:34:35;25.80;;;13.00;;
34405;SDS011;20658;45.630;8.886;2024-01-11T13:37:09;29.73;;;15.15;;
34405;SDS011;20658;45.630;8.886;2024-01-11T13:39:42;23.90;;;13.90;;
34405;SDS011;20658;45.630;8.886;2024-01-11T13:42:17;26.02;;;14.43;;
34405;SDS011;20658;45.630;8.886;2024-01-11T13:44:50;24.20;;;14.60;;
34405;SDS011;20658;45.630;8.886;2024-01-11T13:47:24;22.85;;;14.10;;
34405;SDS011;20658;45.630;8.886;2024-01-11T13:49:57;23.75;;;13.02;;
34405;SDS011;20658;45.630;8.886;2024-01-11T13:52:32;21.80;;;13.35;;
34405;SDS011;20658;45.630;8.886;2024-01-11T13:55:06;22.95;;;13.10;;
34405;SDS011;20658;45.630;8.886;2024-01-11T13:57:42;22.05;;;13.32;;
34405;SDS011;20658;45.630;8.886;2024-01-11T14:00:24;23.92;;;14.20;;
34405;SDS011;20658;45.630;8.886;2024-01-11T14:02:57;23.60;;;12.38;;
34405;SDS011;20658;45.630;8.886;2024-01-11T14:05:30;21.45;;;13.43;;
34405;SDS011;20658;45.630;8.886;2024-01-11T14:08:04;21.70;;;13.88;;
34405;SDS011;20658;45.630;8.886;2024-01-11T14:10:38;22.52;;;13.18;;
34405;SDS011;20658;45.630;8.886;2024-01-11T14:13:13;23.92;;;12.98;;
34405;SDS011;20658;45.630;8.886;2024-01-11T14:15:47;21.20;;;12.50;;
34405;SDS011;20658;45.630;8.886;2024-01-11T14:18:22;24.17;;;13.90;;
34405;SDS011;20658;45.630;8.886;2024-01-11T14:20:57;20.45;;;12.30;;
34405;SDS011;20658;45.630;8.886;2024-01-11T14:23:31;24.08;;;12.63;;
34405;SDS011;20658;45.630;8.886;2024-01-11T14:26:05;24.40;;;14.23;;
34405;SDS011;20658;45.630;8.886;2024-01-11T14:28:40;22.50;;;12.93;;
34405;SDS011;20658;45.630;8.886;2024-01-11T14:31:14;24.08;;;12.93;;
34405;SDS011;20658;45.630;8.886;2024-01-11T14:33:47;22.52;;;13.25;;
34405;SDS011;20658;45.630;8.886;2024-01-11T14:36:21;24.60;;;13.35;;
34405;SDS011;20658;45.630;8.886;2024-01-11T14:38:54;23.60;;;13.18;;
34405;SDS011;20658;45.630;8.886;2024-01-11T14:41:28;22.63;;;13.13;;
34405;SDS011;20658;45.630;8.886;2024-01-11T14:44:03;25.80;;;15.00;;
34405;SDS011;20658;45.630;8.886;2024-01-11T14:46:37;26.42;;;15.50;;
34405;SDS011;20658;45.630;8.886;2024-01-11T14:49:10;25.13;;;15.32;;
34405;SDS011;20658;45.630;8.886;2024-01-11T14:51:43;32.28;;;17.15;;
34405;SDS011;20658;45.630;8.886;2024-01-11T14:54:17;28.20;;;16.83;;
34405;SDS011;20658;45.630;8.886;2024-01-11T14:56:51;28.60;;;17.77;;
34405;SDS011;20658;45.630;8.886;2024-01-11T14:59:27;32.20;;;19.38;;
34405;SDS011;20658;45.630;8.886;2024-01-11T15:02:00;30.73;;;17.67;;